Time;durP1;ratioP1;P1;durP2;ratioP2;P2;SDS_P1;SDS_P2;PMS_P1;PMS_P2;Temp;Humidity;BMP_temperature;BMP_pressure;BME280_temperature;BME280_humidity;BME280_pressure;Samples;Min_cycle;Max_cycle;Signal;HPM_P1;HPM_P2
2022/01/14 00:02:04;;;;;;;67.20;22.90;;;5.60;99.90;;;;;;5081903;28;20056;-68
2022/01/14 00:04:30;;;;;;;56.13;21.10;;;5.60;99.90;;;;;;5072367;28;20094;-68
2022/01/14 00:06:56;;;;;;;59.80;22.48;;;5.70;99.90;;;;;;5071858;28;20119;-68
2022/01/14 00:09:22;;;;;;;59.78;21.33;;;5.70;99.90;;;;;;5072983;28;20048;-67
2022/01/14 00:11:52;;;;;;;67.55;21.65;;;5.70;99.90;;;;;;5090581;28;20064;-69
2022/01/14 00:16:46;;;;;;;60.78;22.15;;;5.70;99.90;;;;;;5091862;28;20047;-69
2022/01/14 00:19:11;;;;;;;70.75;22.50;;;5.70;99.90;;;;;;5076912;28;20400;-68
2022/01/14 00:21:40;;;;;;;56.30;21.35;;;5.70;99.90;;;;;;5090745;28;20051;-68
2022/01/14 00:32:15;;;;;;;52.35;20.80;;;5.70;99.90;;;;;;5090511;28;20516;-68
2022/01/14 00:34:40;;;;;;;55.60;20.95;;;5.70;99.90;;;;;;5086928;28;20045;-68
2022/01/14 00:37:06;;;;;;;52.97;19.65;;;5.70;99.90;;;;;;5071308;28;20370;-67
2022/01/14 00:39:31;;;;;;;50.08;20.85;;;5.80;99.90;;;;;;5076603;28;20075;-67
2022/01/14 00:41:57;;;;;;;58.45;20.33;;;5.80;99.90;;;;;;5091236;28;20056;-68
2022/01/14 00:44:22;;;;;;;49.17;20.63;;;5.70;99.90;;;;;;5086315;28;20499;-68
2022/01/14 00:46:49;;;;;;;53.55;21.88;;;5.80;99.90;;;;;;5079989;28;20372;-68
2022/01/14 00:49:17;;;;;;;58.80;21.10;;;5.70;99.90;;;;;;5079792;28;20127;-70
2022/01/14 00:51:43;;;;;;;52.40;20.10;;;5.80;99.90;;;;;;5086904;28;20574;-68
2022/01/14 00:54:11;;;;;;;48.88;20.38;;;5.80;99.90;;;;;;5091153;28;20079;-68
2022/01/14 00:59:15;;;;;;;53.17;21.85;;;5.80;99.90;;;;;;5071350;28;20057;-67
2022/01/14 01:01:45;;;;;;;51.58;21.45;;;5.80;99.90;;;;;;5105237;28;20049;-68
2022/01/14 01:04:12;;;;;;;52.90;19.25;;;5.80;99.90;;;;;;5071032;28;20131;-68
2022/01/14 01:06:39;;;;;;;53.20;20.77;;;5.80;99.90;;;;;;5076917;28;20047;-68
2022/01/14 01:09:09;;;;;;;50.13;20.25;;;5.80;99.90;;;;;;5062726;28;20044;-68
2022/01/14 01:11:38;;;;;;;52.30;21.17;;;5.80;99.90;;;;;;5075668;28;20045;-68
2022/01/14 01:14:14;;;;;;;49.30;21.50;;;5.70;99.90;;;;;;5076215;28;20053;-69
2022/01/14 01:16:40;;;;;;;44.17;20.65;;;5.80;99.90;;;;;;5074336;28;20118;-68
2022/01/14 01:19:06;;;;;;;55.95;20.67;;;5.90;99.90;;;;;;5075688;28;20048;-67
2022/01/14 01:21:31;;;;;;;50.47;18.75;;;5.80;99.90;;;;;;5092461;28;20101;-69
2022/01/14 01:23:57;;;;;;;54.08;21.70;;;5.90;99.90;;;;;;5090940;28;20044;-69
2022/01/14 01:26:33;;;;;;;58.45;21.45;;;5.90;99.90;;;;;;5081347;28;20120;-70
2022/01/14 01:29:17;;;;;;;49.72;20.35;;;5.80;99.90;;;;;;5094515;28;20044;-68
2022/01/14 01:31:45;;;;;;;48.15;20.35;;;5.80;99.90;;;;;;5094925;28;20059;-69
2022/01/14 01:34:17;;;;;;;55.80;20.23;;;5.90;99.90;;;;;;5094785;28;20063;-69
2022/01/14 01:36:46;;;;;;;59.35;21.80;;;5.90;99.90;;;;;;5094186;28;20055;-67
2022/01/14 01:39:15;;;;;;;51.38;20.45;;;5.90;99.90;;;;;;5088210;28;20063;-68
2022/01/14 01:41:47;;;;;;;47.47;21.00;;;5.80;99.90;;;;;;5094469;28;20063;-69
2022/01/14 01:44:14;;;;;;;;;;;5.80;99.90;;;;;;5086087;28;20044;-67
2022/01/14 01:46:42;;;;;;;46.33;20.25;;;5.80;99.90;;;;;;5076946;28;19921;-67
2022/01/14 01:49:10;;;;;;;51.13;21.00;;;5.90;99.90;;;;;;5073806;28;20052;-68
2022/01/14 01:51:36;;;;;;;52.58;20.85;;;5.80;99.90;;;;;;5080374;28;20044;-68
2022/01/14 01:54:02;;;;;;;53.45;21.52;;;5.90;99.90;;;;;;5094276;28;20404;-68
2022/01/14 01:56:28;;;;;;;52.35;21.77;;;5.90;99.90;;;;;;5093117;28;20551;-67
2022/01/14 01:58:56;;;;;;;49.78;22.52;;;5.80;99.90;;;;;;5094407;28;20122;-67
2022/01/14 02:01:23;;;;;;;49.47;21.65;;;5.90;99.90;;;;;;5092517;28;20136;-68
2022/01/14 02:03:49;;;;;;;51.03;21.70;;;5.80;99.90;;;;;;5095538;28;20056;-67
2022/01/14 02:06:15;;;;;;;45.55;21.58;;;5.90;99.90;;;;;;5094922;28;20095;-67
2022/01/14 02:08:41;;;;;;;46.80;20.83;;;5.90;99.90;;;;;;5077062;28;20511;-68
2022/01/14 02:11:07;;;;;;;49.50;21.25;;;5.90;99.90;;;;;;5079094;28;20052;-68
2022/01/14 02:13:32;;;;;;;44.00;21.42;;;5.90;99.90;;;;;;5074955;28;20084;-67
2022/01/14 02:23:51;;;;;;;44.88;22.55;;;5.90;99.90;;;;;;5093118;28;20457;-69
2022/01/14 02:26:18;;;;;;;43.83;20.73;;;6.00;99.90;;;;;;5082269;28;20090;-69
2022/01/14 02:28:46;;;;;;;44.20;20.98;;;5.90;99.90;;;;;;5074828;28;20405;-68
2022/01/14 02:31:11;;;;;;;46.15;21.55;;;5.90;99.90;;;;;;5075057;28;20049;-67
2022/01/14 02:33:37;;;;;;;45.17;21.05;;;6.00;99.90;;;;;;5073269;28;20113;-68
2022/01/14 02:36:03;;;;;;;45.72;21.17;;;5.90;99.90;;;;;;5088000;28;20087;-68
2022/01/14 02:38:30;;;;;;;48.67;21.08;;;6.00;99.90;;;;;;5093491;28;20114;-68
2022/01/14 02:40:56;;;;;;;44.42;22.73;;;5.90;99.90;;;;;;5075923;28;20071;-68
2022/01/14 02:43:23;;;;;;;43.20;21.38;;;5.90;99.90;;;;;;5072950;28;20480;-68
2022/01/14 02:45:52;;;;;;;48.17;22.45;;;5.90;99.90;;;;;;5106660;28;20076;-68
2022/01/14 02:48:21;;;;;;;48.72;22.67;;;5.90;99.90;;;;;;5057410;28;20044;-68
2022/01/14 02:51:06;;;;;;;48.90;24.05;;;6.00;99.90;;;;;;5089547;28;20056;-68
2022/01/14 02:56:04;;;;;;;51.95;23.75;;;5.90;99.90;;;;;;5093998;28;20181;-68
2022/01/14 02:58:32;;;;;;;51.10;24.27;;;5.90;99.90;;;;;;5080981;28;20179;-68
2022/01/14 03:01:10;;;;;;;57.22;25.17;;;5.80;99.90;;;;;;5088655;28;20063;-69
2022/01/14 03:03:37;;;;;;;56.25;24.15;;;5.80;99.90;;;;;;5108232;28;20098;-67
2022/01/14 03:06:04;;;;;;;49.80;22.60;;;5.80;99.90;;;;;;5084314;28;20131;-69
2022/01/14 03:08:30;;;;;;;53.95;25.08;;;5.80;99.90;;;;;;5082840;28;20047;-67
2022/01/14 03:11:00;;;;;;;56.47;23.45;;;5.80;99.90;;;;;;5090744;28;20055;-68
2022/01/14 03:13:27;;;;;;;56.03;25.08;;;5.80;99.90;;;;;;5093850;28;20105;-68
2022/01/14 03:15:53;;;;;;;50.92;23.50;;;5.80;99.90;;;;;;5074434;28;20044;-68
2022/01/14 03:18:29;;;;;;;55.40;22.60;;;5.80;99.90;;;;;;5091930;28;20079;-67
2022/01/14 03:21:08;;;;;;;54.60;23.52;;;5.80;99.90;;;;;;5106109;28;20543;-68
2022/01/14 03:23:41;;;;;;;48.03;23.08;;;5.80;99.90;;;;;;5081859;28;20041;-69
2022/01/14 03:26:07;;;;;;;51.40;22.92;;;5.80;99.90;;;;;;5091734;28;20140;-70
2022/01/14 03:28:32;;;;;;;58.78;23.80;;;5.70;99.90;;;;;;5124612;27;20111;-68
2022/01/14 03:30:58;;;;;;;46.03;22.27;;;5.60;99.90;;;;;;5092224;28;20093;-68
2022/01/14 03:33:23;;;;;;;52.38;23.42;;;5.80;99.90;;;;;;5089929;28;20068;-68
2022/01/14 03:35:50;;;;;;;53.95;22.83;;;5.70;99.90;;;;;;5078393;28;20087;-69
2022/01/14 03:38:17;;;;;;;50.30;21.90;;;5.70;99.90;;;;;;5091366;28;20127;-68
2022/01/14 03:40:43;;;;;;;57.75;22.05;;;5.70;99.90;;;;;;5081335;28;20105;-69
2022/01/14 03:43:10;;;;;;;48.70;22.20;;;5.70;99.90;;;;;;5072067;28;20056;-70
2022/01/14 03:45:35;;;;;;;45.83;20.65;;;5.70;99.90;;;;;;5087624;28;20488;-69
2022/01/14 03:48:01;;;;;;;53.47;22.50;;;5.70;99.90;;;;;;5080346;28;20046;-69
2022/01/14 03:50:27;;;;;;;49.75;20.95;;;5.70;99.90;;;;;;5084005;28;20053;-69
2022/01/14 03:52:53;;;;;;;59.88;22.40;;;5.70;99.90;;;;;;5078657;28;20079;-68
2022/01/14 03:55:18;;;;;;;54.67;23.30;;;5.70;99.90;;;;;;5092749;28;20121;-67
2022/01/14 03:57:44;;;;;;;55.35;23.20;;;5.70;99.90;;;;;;5082263;28;20052;-68
2022/01/14 04:00:10;;;;;;;50.47;20.77;;;5.70;99.90;;;;;;5072994;28;20053;-68
2022/01/14 04:02:36;;;;;;;54.53;21.48;;;5.70;99.90;;;;;;5075407;28;20059;-68
2022/01/14 04:05:02;;;;;;;54.55;23.30;;;5.70;99.90;;;;;;5088524;28;20388;-68
2022/01/14 04:07:27;;;;;;;52.42;23.27;;;5.70;99.90;;;;;;5057329;28;20075;-67
2022/01/14 04:09:53;;;;;;;51.70;22.58;;;5.70;99.90;;;;;;5089688;28;20045;-68
2022/01/14 04:12:31;;;;;;;47.47;22.65;;;5.60;99.90;;;;;;5091430;28;20098;-68
2022/01/14 04:17:22;;;;;;;58.28;23.42;;;5.70;99.90;;;;;;5091216;28;20084;-68
2022/01/14 04:19:48;;;;;;;49.45;23.63;;;5.70;99.90;;;;;;5092378;28;20496;-68
2022/01/14 04:22:13;;;;;;;59.03;24.20;;;5.60;99.90;;;;;;5091103;28;20135;-68
2022/01/14 04:24:39;;;;;;;53.97;22.80;;;5.60;99.90;;;;;;5072246;28;20101;-70
2022/01/14 04:27:05;;;;;;;54.97;23.85;;;5.60;99.90;;;;;;5090541;28;20100;-68
2022/01/14 04:29:32;;;;;;;53.83;23.17;;;5.60;99.90;;;;;;5089135;28;20055;-67
2022/01/14 04:31:58;;;;;;;55.72;23.17;;;5.60;99.90;;;;;;5080211;28;20492;-68
2022/01/14 04:34:24;;;;;;;56.53;24.02;;;5.60;99.90;;;;;;5092001;28;20052;-68
2022/01/14 04:36:49;;;;;;;54.10;23.23;;;5.60;99.90;;;;;;5074965;28;20484;-68
2022/01/14 04:39:15;;;;;;;50.80;22.92;;;5.60;99.90;;;;;;5071057;28;20113;-69
2022/01/14 04:41:41;;;;;;;59.78;24.42;;;5.60;99.90;;;;;;5078691;28;20082;-67
2022/01/14 04:44:06;;;;;;;56.60;23.50;;;5.60;99.90;;;;;;5096099;28;20059;-68
2022/01/14 04:46:47;;;;;;;56.60;23.17;;;5.60;99.90;;;;;;5094381;28;20094;-67
2022/01/14 04:49:13;;;;;;;56.97;24.00;;;5.60;99.90;;;;;;5096928;28;20052;-66
2022/01/14 04:51:38;;;;;;;53.83;23.05;;;5.60;99.90;;;;;;5073751;28;20051;-67
2022/01/14 04:54:04;;;;;;;51.88;24.38;;;5.60;99.90;;;;;;5096538;28;20079;-68
2022/01/14 04:56:33;;;;;;;51.47;22.20;;;5.50;99.90;;;;;;5081812;28;20048;-67
2022/01/14 04:58:58;;;;;;;54.28;22.98;;;5.60;99.90;;;;;;5074872;28;20052;-68
2022/01/14 05:01:24;;;;;;;51.17;23.15;;;5.50;99.90;;;;;;5091490;28;20121;-68
2022/01/14 05:03:49;;;;;;;55.67;23.33;;;5.50;99.90;;;;;;5075164;28;20045;-69
2022/01/14 05:06:15;;;;;;;55.38;22.63;;;5.50;99.90;;;;;;5076485;28;20077;-68
2022/01/14 05:08:40;;;;;;;59.25;23.63;;;5.60;99.90;;;;;;5093095;28;20047;-67
2022/01/14 05:13:41;;;;;;;51.85;23.05;;;5.50;99.90;;;;;;5076104;28;20101;-67
2022/01/14 05:16:07;;;;;;;54.42;22.73;;;5.50;99.90;;;;;;5086759;28;20134;-69
2022/01/14 05:18:32;;;;;;;53.78;23.88;;;5.50;99.90;;;;;;5076520;28;20149;-68
2022/01/14 05:20:58;;;;;;;56.05;23.15;;;5.50;99.90;;;;;;5084014;28;20472;-68
2022/01/14 05:23:24;;;;;;;53.90;23.42;;;5.50;99.90;;;;;;5074351;28;20049;-68
2022/01/14 05:25:49;;;;;;;48.78;21.08;;;5.50;99.90;;;;;;5074104;28;20045;-68
2022/01/14 05:28:15;;;;;;;56.90;23.00;;;5.50;99.90;;;;;;5075769;28;20048;-70
2022/01/14 05:30:41;;;;;;;51.70;22.10;;;5.40;99.90;;;;;;5082115;28;20403;-67
2022/01/14 05:33:06;;;;;;;49.40;21.83;;;5.40;99.90;;;;;;5093959;28;20097;-68
2022/01/14 05:35:32;;;;;;;53.45;22.15;;;5.40;99.90;;;;;;5079719;28;20052;-69
2022/01/14 05:37:58;;;;;;;55.40;22.67;;;5.70;99.90;;;;;;5094450;28;20480;-68
2022/01/14 05:40:26;;;;;;;54.45;22.83;;;5.30;99.90;;;;;;5092517;28;20063;-68
2022/01/14 05:42:51;;;;;;;50.60;22.90;;;5.40;99.90;;;;;;5072879;28;20408;-68
2022/01/14 05:45:17;;;;;;;57.15;22.95;;;5.40;99.90;;;;;;5082579;28;20040;-67
2022/01/14 05:47:43;;;;;;;44.20;23.33;;;5.30;99.90;;;;;;5075709;28;20040;-69
2022/01/14 05:50:12;;;;;;;50.30;23.02;;;5.40;99.90;;;;;;5089634;28;20074;-68
2022/01/14 05:52:39;;;;;;;51.70;22.83;;;5.40;99.90;;;;;;5119667;27;20052;-68
2022/01/14 05:55:06;;;;;;;47.95;22.40;;;5.30;99.90;;;;;;5075294;28;20253;-68
2022/01/14 05:57:34;;;;;;;46.03;22.27;;;5.40;99.90;;;;;;5085358;28;20052;-67
2022/01/14 06:00:01;;;;;;;47.20;22.33;;;5.40;99.90;;;;;;5093122;28;20123;-68
2022/01/14 06:02:27;;;;;;;43.50;21.48;;;5.40;99.90;;;;;;5092737;28;20067;-68
2022/01/14 06:04:52;;;;;;;50.25;23.08;;;5.30;99.90;;;;;;5074278;28;20401;-68
2022/01/14 06:07:18;;;;;;;44.50;21.25;;;5.30;99.90;;;;;;5092698;28;20052;-67
2022/01/14 06:09:43;;;;;;;45.60;23.67;;;5.30;99.90;;;;;;5092010;28;20055;-67
2022/01/14 06:12:10;;;;;;;48.30;21.83;;;5.30;99.90;;;;;;5090636;28;20046;-68
2022/01/14 06:14:35;;;;;;;46.75;22.15;;;5.30;99.90;;;;;;5073384;28;20098;-67
2022/01/14 06:17:01;;;;;;;44.85;22.25;;;6.50;99.90;;;;;;5075930;28;20091;-67
2022/01/14 06:19:30;;;;;;;44.80;22.65;;;5.30;99.90;;;;;;5074855;28;20143;-68
2022/01/14 06:21:56;;;;;;;46.08;21.75;;;5.40;99.90;;;;;;5088996;28;20135;-68
2022/01/14 06:24:22;;;;;;;40.10;22.33;;;5.30;99.90;;;;;;5092941;28;20052;-68
2022/01/14 06:26:48;;;;;;;40.00;21.98;;;5.30;99.90;;;;;;5093309;28;20131;-69
2022/01/14 06:29:13;;;;;;;41.72;20.02;;;5.30;99.90;;;;;;5091608;28;20121;-67
2022/01/14 06:31:39;;;;;;;43.92;21.95;;;5.30;99.90;;;;;;5079529;28;20071;-69
2022/01/14 06:34:05;;;;;;;37.95;20.85;;;5.30;99.90;;;;;;5075608;28;20063;-69
2022/01/14 06:36:30;;;;;;;39.10;20.52;;;5.40;99.90;;;;;;5089769;28;20123;-67
2022/01/14 06:39:00;;;;;;;36.45;19.27;;;5.40;99.90;;;;;;5072886;28;20068;-69
2022/01/14 06:41:26;;;;;;;33.58;20.25;;;5.30;99.90;;;;;;5090013;28;20130;-68
2022/01/14 06:44:13;;;;;;;36.13;20.27;;;5.50;99.90;;;;;;5082736;28;20051;-69
2022/01/14 06:46:40;;;;;;;34.40;20.63;;;5.40;99.90;;;;;;5069024;28;20052;-69
2022/01/14 06:49:06;;;;;;;34.78;19.58;;;5.50;99.90;;;;;;5072894;28;20056;-69
2022/01/14 06:51:32;;;;;;;34.15;19.25;;;5.50;99.90;;;;;;5073649;28;20099;-68
2022/01/14 06:53:57;;;;;;;35.78;19.67;;;5.50;99.90;;;;;;5083119;28;20044;-68
2022/01/14 06:56:23;;;;;;;37.45;20.13;;;5.50;99.90;;;;;;5085328;28;20123;-69
2022/01/14 06:58:48;;;;;;;42.63;20.65;;;5.60;99.90;;;;;;5092198;28;20104;-68
2022/01/14 07:01:20;;;;;;;29.70;19.00;;;5.50;99.90;;;;;;5084126;28;20169;-68
2022/01/14 07:03:46;;;;;;;33.23;18.57;;;6.50;99.90;;;;;;5074162;28;20106;-67
2022/01/14 07:06:11;;;;;;;37.90;20.67;;;5.60;99.90;;;;;;5055480;28;20056;-68
2022/01/14 07:08:37;;;;;;;36.45;20.50;;;5.60;99.90;;;;;;5092936;28;20040;-68
2022/01/14 07:11:03;;;;;;;37.40;21.95;;;5.60;99.90;;;;;;5087602;28;20048;-68
2022/01/14 07:13:29;;;;;;;35.97;20.08;;;5.50;99.90;;;;;;5092974;28;20462;-67
2022/01/14 07:15:54;;;;;;;35.67;19.98;;;5.50;99.90;;;;;;5080880;28;20135;-67
2022/01/14 07:18:20;;;;;;;34.40;20.42;;;5.40;99.90;;;;;;5072645;28;20106;-68
2022/01/14 07:20:46;;;;;;;36.15;20.67;;;5.50;99.90;;;;;;5072160;28;20127;-68
2022/01/14 07:23:12;;;;;;;36.30;20.42;;;5.50;99.90;;;;;;5073121;28;20128;-68
2022/01/14 07:25:39;;;;;;;38.47;20.67;;;5.50;99.90;;;;;;5072019;28;20067;-69
2022/01/14 07:28:05;;;;;;;39.20;20.08;;;5.30;99.90;;;;;;5083106;28;20048;-67
2022/01/14 07:30:30;;;;;;;32.42;19.98;;;5.50;99.90;;;;;;5092279;28;20477;-68
2022/01/14 07:32:56;;;;;;;40.03;21.33;;;5.50;99.90;;;;;;5093166;28;20059;-67
2022/01/14 07:35:21;;;;;;;33.63;18.92;;;5.50;99.90;;;;;;5092889;28;20392;-68
2022/01/14 07:37:47;;;;;;;36.40;20.58;;;5.50;99.90;;;;;;5091994;28;20410;-68
2022/01/14 07:40:13;;;;;;;38.13;20.25;;;5.50;99.90;;;;;;5092426;28;20063;-68
2022/01/14 07:42:38;;;;;;;37.05;20.00;;;5.50;99.90;;;;;;5066957;28;20048;-68
2022/01/14 07:45:05;;;;;;;33.60;19.23;;;5.50;99.90;;;;;;5089577;28;20484;-68
2022/01/14 07:47:32;;;;;;;38.08;20.52;;;5.50;99.90;;;;;;5086504;28;20130;-68
2022/01/14 07:49:58;;;;;;;34.92;19.17;;;5.50;99.90;;;;;;5093217;28;20113;-67
2022/01/14 07:52:23;;;;;;;31.98;20.25;;;5.60;99.90;;;;;;5087681;28;20049;-69
2022/01/14 07:54:49;;;;;;;35.25;19.23;;;5.50;99.90;;;;;;5073277;28;20464;-68
2022/01/14 07:57:15;;;;;;;30.70;18.50;;;5.60;99.90;;;;;;5071647;28;20143;-67
2022/01/14 07:59:41;;;;;;;33.75;18.00;;;5.60;99.90;;;;;;5077241;28;20135;-68
2022/01/14 08:02:07;;;;;;;33.83;19.58;;;5.50;99.90;;;;;;5074580;28;20117;-68
2022/01/14 08:04:35;;;;;;;31.05;18.77;;;5.60;99.90;;;;;;5089491;28;20048;-67
2022/01/14 08:07:08;;;;;;;32.90;18.70;;;5.60;99.90;;;;;;5092861;28;20405;-67
2022/01/14 08:09:41;;;;;;;32.53;18.45;;;5.60;99.90;;;;;;5092846;28;20505;-67
2022/01/14 08:12:08;;;;;;;32.28;18.23;;;5.60;99.90;;;;;;5092876;28;20217;-69
2022/01/14 08:14:35;;;;;;;33.50;19.30;;;5.70;99.90;;;;;;5093249;28;20052;-67
2022/01/14 08:17:00;;;;;;;33.40;18.27;;;5.60;99.90;;;;;;5090620;28;20066;-67
2022/01/14 08:19:26;;;;;;;30.23;18.63;;;5.70;99.90;;;;;;5070906;28;20104;-68
2022/01/14 08:21:52;;;;;;;29.10;16.65;;;5.70;99.90;;;;;;5081554;28;20127;-68
2022/01/14 08:24:17;;;;;;;30.60;18.90;;;5.70;99.90;;;;;;5075381;28;20192;-69
2022/01/14 08:26:43;;;;;;;34.03;19.20;;;5.80;99.90;;;;;;5089522;28;20480;-68
2022/01/14 08:29:09;;;;;;;35.65;18.58;;;5.70;99.90;;;;;;5090244;28;20055;-68
2022/01/14 08:31:34;;;;;;;26.25;17.98;;;5.80;99.90;;;;;;5091216;28;20139;-68
2022/01/14 08:34:00;;;;;;;29.88;18.13;;;5.80;99.90;;;;;;5092996;28;20052;-67
2022/01/14 08:36:28;;;;;;;31.63;17.83;;;5.80;99.90;;;;;;5091491;28;20048;-69
2022/01/14 08:38:54;;;;;;;31.77;17.52;;;5.80;99.90;;;;;;5091475;28;20390;-68
2022/01/14 08:41:19;;;;;;;25.90;17.58;;;5.80;99.90;;;;;;5092617;28;20055;-68
2022/01/14 08:43:47;;;;;;;29.10;16.83;;;5.80;99.90;;;;;;5092949;28;20457;-69
2022/01/14 08:46:13;;;;;;;29.17;16.88;;;5.80;99.90;;;;;;5090829;28;20048;-69
2022/01/14 08:48:39;;;;;;;34.83;18.02;;;5.90;99.90;;;;;;5092922;28;20063;-68
2022/01/14 08:51:05;;;;;;;28.95;16.88;;;5.90;99.90;;;;;;5091509;28;20052;-69
2022/01/14 08:53:30;;;;;;;31.15;17.25;;;6.00;99.90;;;;;;5092788;28;20051;-69
2022/01/14 08:55:56;;;;;;;28.23;16.42;;;6.00;99.90;;;;;;5091035;28;20161;-67
2022/01/14 08:58:21;;;;;;;29.23;16.27;;;5.90;99.90;;;;;;5092007;28;20060;-66
2022/01/14 09:00:49;;;;;;;28.85;17.00;;;6.00;99.90;;;;;;5092231;28;20055;-69
2022/01/14 09:03:15;;;;;;;30.30;16.38;;;;;;;;;;5092902;28;20391;-68
2022/01/14 09:05:40;;;;;;;29.70;15.77;;;6.10;99.90;;;;;;5091503;28;20452;-67
2022/01/14 09:08:06;;;;;;;28.27;16.33;;;6.10;99.90;;;;;;5092649;28;20062;-68
2022/01/14 09:10:32;;;;;;;26.02;15.63;;;6.10;99.90;;;;;;5091522;28;20495;-68
2022/01/14 09:12:57;;;;;;;25.75;14.85;;;6.20;99.90;;;;;;5092267;28;20055;-69
2022/01/14 09:15:23;;;;;;;26.08;15.38;;;6.20;99.90;;;;;;5090952;28;20063;-68
2022/01/14 09:17:49;;;;;;;25.83;15.18;;;6.20;99.90;;;;;;5091846;28;20109;-67
2022/01/14 09:20:15;;;;;;;27.33;15.02;;;6.30;99.90;;;;;;5092978;28;20044;-68
2022/01/14 09:22:47;;;;;;;28.80;15.07;;;6.30;99.90;;;;;;5091011;28;20052;-68
2022/01/14 09:25:13;;;;;;;25.38;14.43;;;6.30;99.90;;;;;;5092423;28;20383;-69
2022/01/14 09:27:38;;;;;;;31.45;14.98;;;6.30;99.90;;;;;;5091496;28;20059;-68
2022/01/14 09:30:06;;;;;;;24.33;14.20;;;6.30;99.90;;;;;;5075210;28;20127;-68
2022/01/14 09:32:31;;;;;;;22.50;13.82;;;6.30;99.90;;;;;;5083426;28;20048;-69
2022/01/14 09:34:57;;;;;;;29.52;13.63;;;6.40;99.90;;;;;;5094703;28;20455;-69
2022/01/14 09:37:23;;;;;;;24.02;13.60;;;6.40;99.90;;;;;;5082403;28;20139;-68
2022/01/14 09:39:49;;;;;;;27.58;14.40;;;6.40;99.90;;;;;;5095879;28;20055;-68
2022/01/14 09:42:15;;;;;;;25.55;13.52;;;6.50;99.90;;;;;;5095506;28;20052;-68
2022/01/14 09:44:42;;;;;;;26.38;13.93;;;6.50;99.90;;;;;;5095547;28;20113;-67
2022/01/14 09:47:08;;;;;;;29.10;14.27;;;6.50;99.90;;;;;;5080207;28;20048;-68
2022/01/14 09:49:35;;;;;;;28.48;13.60;;;6.60;99.90;;;;;;5104679;28;20058;-67
2022/01/14 09:52:00;;;;;;;24.08;13.70;;;6.60;99.90;;;;;;5128077;27;20060;-68
2022/01/14 09:54:26;;;;;;;28.65;13.90;;;6.60;99.90;;;;;;5094643;28;20580;-67
2022/01/14 09:56:52;;;;;;;26.35;13.52;;;6.70;99.90;;;;;;5095262;28;20472;-67
2022/01/14 09:59:18;;;;;;;22.88;13.23;;;6.70;99.90;;;;;;5095609;28;20091;-70
2022/01/14 10:01:47;;;;;;;24.80;12.88;;;6.70;99.90;;;;;;5094984;28;20095;-68
2022/01/14 10:04:17;;;;;;;23.80;12.63;;;6.70;99.90;;;;;;5094377;28;20056;-68
2022/01/14 10:06:45;;;;;;;19.33;11.68;;;6.70;99.90;;;;;;5076137;28;20537;-68
2022/01/14 10:09:19;;;;;;;23.67;11.85;;;6.80;99.90;;;;;;5094575;28;20048;-68
2022/01/14 10:12:05;;;;;;;22.70;12.13;;;6.90;99.90;;;;;;5094044;28;20063;-68
2022/01/14 10:14:31;;;;;;;22.00;10.50;;;6.90;99.90;;;;;;5094913;28;20075;-68
2022/01/14 10:17:00;;;;;;;17.45;9.80;;;6.90;99.90;;;;;;5094401;28;20392;-70
2022/01/14 10:19:32;;;;;;;23.80;10.68;;;6.90;99.90;;;;;;5093441;28;20123;-68
2022/01/14 10:21:58;;;;;;;21.08;10.43;;;7.00;99.90;;;;;;5086783;28;20056;-68
2022/01/14 10:24:25;;;;;;;18.77;9.27;;;7.00;99.90;;;;;;5094698;28;20063;-68
2022/01/14 10:26:56;;;;;;;22.83;9.90;;;7.00;99.90;;;;;;5094540;28;20083;-67
2022/01/14 10:29:30;;;;;;;15.40;8.60;;;;;;;;;;5094593;28;20048;-69
2022/01/14 10:31:58;;;;;;;19.98;9.07;;;;;;;;;;5094282;28;20099;-68
2022/01/14 10:34:24;;;;;;;15.75;8.38;;;;;;;;;;5094618;28;20095;-68
2022/01/14 10:36:50;;;;;;;16.85;9.02;;;7.40;99.90;;;;;;5081526;28;20060;-67
2022/01/14 10:39:24;;;;;;;13.30;8.05;;;7.20;99.90;;;;;;5088701;28;20071;-70
2022/01/14 10:41:51;;;;;;;16.33;8.30;;;7.20;99.90;;;;;;5094838;28;20055;-69
2022/01/14 10:44:37;;;;;;;14.27;6.68;;;7.30;99.90;;;;;;5075930;28;20048;-67
2022/01/14 10:47:11;;;;;;;18.08;7.32;;;7.20;99.90;;;;;;5092911;28;20054;-68
2022/01/14 10:49:40;;;;;;;14.48;7.50;;;;;;;;;;5093068;28;20123;-68
2022/01/14 10:52:11;;;;;;;19.17;7.53;;;7.40;99.90;;;;;;5092836;28;20499;-67
2022/01/14 10:54:48;;;;;;;15.50;6.93;;;7.60;99.90;;;;;;5094490;28;20095;-68
2022/01/14 10:57:19;;;;;;;13.48;6.90;;;7.30;99.90;;;;;;5074755;28;20438;-67
2022/01/14 10:59:46;;;;;;;14.95;6.45;;;7.60;99.90;;;;;;5073092;28;20058;-67
2022/01/14 11:02:32;;;;;;;15.18;6.07;;;7.50;99.90;;;;;;5073352;28;20485;-68
2022/01/14 11:05:00;;;;;;;13.65;5.80;;;7.50;99.90;;;;;;5093367;28;20056;-68
2022/01/14 11:07:26;;;;;;;16.67;6.88;;;7.30;99.90;;;;;;5092805;28;20475;-68
2022/01/14 11:09:52;;;;;;;16.45;6.20;;;7.40;99.90;;;;;;5094351;28;20055;-66
2022/01/14 11:12:18;;;;;;;11.60;6.63;;;7.50;99.90;;;;;;5101828;28;20052;-67
2022/01/14 11:14:45;;;;;;;11.93;5.90;;;7.80;99.90;;;;;;5074781;28;20134;-67
2022/01/14 11:17:10;;;;;;;12.60;6.45;;;7.50;99.90;;;;;;5092599;28;20079;-68
2022/01/14 11:19:36;;;;;;;13.38;6.95;;;7.50;99.90;;;;;;5091541;28;20512;-68
2022/01/14 11:24:47;;;;;;;14.02;5.70;;;7.50;99.90;;;;;;5093886;28;20127;-70
2022/01/14 11:27:14;;;;;;;14.82;5.47;;;7.40;99.90;;;;;;5092148;28;20051;-68
2022/01/14 11:29:42;;;;;;;12.55;5.82;;;7.40;99.90;;;;;;5092682;28;20048;-67
2022/01/14 11:32:09;;;;;;;13.98;5.38;;;7.70;99.90;;;;;;5088608;28;20044;-68
2022/01/14 11:34:42;;;;;;;11.40;5.00;;;7.60;99.90;;;;;;5086203;28;20060;-67
2022/01/14 11:37:17;;;;;;;12.13;5.28;;;7.60;99.90;;;;;;5087281;28;20052;-68
2022/01/14 11:40:19;;;;;;;14.02;5.03;;;7.40;99.90;;;;;;5092611;28;20460;-68
2022/01/14 11:42:48;;;;;;;9.40;5.13;;;7.40;99.90;;;;;;5068980;28;20048;-67
2022/01/14 11:45:47;;;;;;;15.68;5.50;;;7.50;99.90;;;;;;5082910;28;20052;-66
2022/01/14 11:48:33;;;;;;;17.63;5.95;;;7.60;99.90;;;;;;5087584;28;20529;-68
2022/01/14 11:51:01;;;;;;;13.25;5.35;;;7.40;99.90;;;;;;5081814;28;20056;-67
2022/01/14 11:53:43;;;;;;;12.43;5.40;;;7.60;99.90;;;;;;5088471;28;20053;-68
2022/01/14 11:56:34;;;;;;;16.08;5.55;;;7.50;99.90;;;;;;5093028;28;20059;-67
2022/01/14 11:59:34;;;;;;;11.48;5.35;;;7.50;99.90;;;;;;5093813;28;20059;-69
2022/01/14 12:02:00;;;;;;;13.30;4.70;;;7.00;99.90;;;;;;5091033;28;20060;-67
2022/01/14 12:05:09;;;;;;;13.93;5.47;;;7.60;99.90;;;;;;5091703;28;20058;-69
2022/01/14 12:08:07;;;;;;;13.40;6.05;;;7.70;99.90;;;;;;5090694;28;20108;-69
2022/01/14 12:10:40;;;;;;;14.40;5.70;;;;;;;;;;5073228;28;20044;-67
2022/01/14 12:13:25;;;;;;;14.25;6.10;;;7.60;99.90;;;;;;5071970;28;20156;-67
2022/01/14 12:16:03;;;;;;;11.27;5.10;;;7.60;99.90;;;;;;5072464;28;20048;-68
2022/01/14 12:18:56;;;;;;;12.82;5.90;;;7.60;99.90;;;;;;5072898;28;20059;-68
2022/01/14 12:21:37;;;;;;;12.65;5.35;;;7.50;99.90;;;;;;5071455;28;20048;-67
2022/01/14 12:24:15;;;;;;;13.90;5.10;;;7.60;99.90;;;;;;5084639;28;20109;-67
2022/01/14 12:27:11;;;;;;;10.55;4.72;;;7.60;99.90;;;;;;5092112;28;20044;-67
2022/01/14 12:29:42;;;;;;;9.20;4.47;;;7.60;99.90;;;;;;5088196;28;20078;-67
2022/01/14 12:32:08;;;;;;;13.88;4.97;;;7.60;99.90;;;;;;5074104;28;20127;-67
2022/01/14 12:34:37;;;;;;;11.90;4.78;;;7.50;99.90;;;;;;5092983;28;20052;-67
2022/01/14 12:37:04;;;;;;;9.63;4.40;;;7.50;99.90;;;;;;5090945;28;20044;-69
2022/01/14 12:39:30;;;;;;;11.63;4.30;;;7.50;99.90;;;;;;5090116;28;20056;-67
2022/01/14 12:41:58;;;;;;;11.35;5.40;;;7.60;99.90;;;;;;5091416;28;20538;-65
2022/01/14 12:44:24;;;;;;;12.40;5.32;;;7.60;99.90;;;;;;5092084;28;20056;-68
2022/01/14 12:47:06;;;;;;;13.52;4.55;;;7.60;99.90;;;;;;5125534;28;20399;-68
2022/01/14 12:49:40;;;;;;;11.15;4.57;;;7.50;99.90;;;;;;5091595;28;20043;-68
2022/01/14 12:52:09;;;;;;;9.25;4.15;;;7.60;99.90;;;;;;5092940;28;20044;-69
2022/01/14 12:54:38;;;;;;;10.07;4.20;;;7.50;99.90;;;;;;5091152;28;20452;-68
2022/01/14 12:57:04;;;;;;;9.13;4.22;;;7.50;99.90;;;;;;5090817;28;20062;-67
2022/01/14 12:59:50;;;;;;;9.35;5.05;;;7.50;99.90;;;;;;5093396;28;20431;-67
2022/01/14 13:02:17;;;;;;;19.52;5.43;;;7.50;99.90;;;;;;5092531;28;20129;-68
2022/01/14 13:04:43;;;;;;;9.20;5.63;;;7.50;99.90;;;;;;5095499;28;20475;-68
2022/01/14 13:07:11;;;;;;;11.85;4.88;;;7.50;99.90;;;;;;5095402;28;20047;-68
2022/01/14 13:09:39;;;;;;;12.07;4.30;;;7.50;99.90;;;;;;5078024;28;20052;-67
2022/01/14 13:12:13;;;;;;;11.98;5.28;;;7.50;99.90;;;;;;5094566;28;20055;-67
2022/01/14 13:14:59;;;;;;;10.75;4.80;;;7.60;99.90;;;;;;5096443;28;20513;-68
2022/01/14 13:17:28;;;;;;;17.73;5.28;;;7.50;99.90;;;;;;5095154;28;20048;-68
2022/01/14 13:20:04;;;;;;;13.80;5.13;;;7.50;99.90;;;;;;5095239;28;20058;-67